Latest Weather Observations for Noonamah

IDD60801

Issued at 8:31 pm CST Sunday 24 May 2015 (issued every 30 minutes, with the page automatically refreshed every 10 minutes)

About weather observations | Map of weather stations | Latest weather observations for NT | Other Formats
Station Details ID: 014314 Name: NOONAMAH AIRSTRIP Lat: -12.61 Lon: 131.05 Height: 17.5 m
Data from the previous 72 hours. | See also: Recent months for locations in Northern Territory
Date/Time
CST
Temp
°C
App
Temp
°C
Dew
Point
Rel
Hum
%
Delta-T
°C
Wind Press
QNH
hPa
Press
MSL
hPa
Rain
since 9 am
mm
Dir
 
Spd
km/h
Gust
km/h
Spd
kts
Gust
kts
24/08:30pm 22.2 24.0 15.5 66 4.0 CALM 0 0 0 0 1014.4 1014.3 0.0
24/08:00pm 23.1 24.7 14.9 60 4.9 CALM 0 0 0 0 1013.9 1013.8 0.0
24/07:30pm 24.3 25.9 15.0 56 5.6 CALM 0 0 0 0 1013.5 1013.4 0.0
24/07:00pm 25.8 26.6 14.9 51 6.6 WNW 4 6 2 3 1013.1 1013.0 0.0
24/06:30pm 27.6 28.7 13.5 41 8.3 CALM 0 0 0 0 1012.7 1012.6 0.0
24/06:00pm 30.7 31.4 12.1 32 10.9 CALM 0 0 0 0 1012.5 1012.4 0.0
24/05:30pm 31.8 31.1 9.9 26 12.5 NE 4 9 2 5 1012.0 1011.9 0.0
24/05:00pm 32.7 30.8 7.5 21 13.9 E 7 11 4 6 1011.9 1011.8 0.0
24/04:30pm 33.1 30.3 7.1 20 14.3 E 11 17 6 9 1011.8 1011.7 0.0
24/04:00pm 33.2 31.0 7.9 21 14.0 ESE 9 15 5 8 1011.6 1011.5 0.0
24/03:30pm 33.3 31.1 8.0 21 14.1 E 9 17 5 9 1011.6 1011.5 0.0
24/03:00pm 32.9 31.2 7.7 21 13.9 ENE 6 15 3 8 1011.9 1011.8 0.0
24/02:30pm 33.1 30.9 7.9 21 14.0 ENE 9 20 5 11 1012.1 1012.0 0.0
24/02:00pm 32.5 30.2 7.4 21 13.8 ESE 9 13 5 7 1012.3 1012.2 0.0
24/01:30pm 32.0 29.2 7.0 21 13.6 E 11 20 6 11 1012.8 1012.7 0.0
24/01:00pm 31.1 28.1 6.2 21 13.3 ESE 11 22 6 12 1013.3 1013.2 0.0
24/12:30pm 30.7 27.8 6.6 22 12.9 ESE 11 17 6 9 1013.9 1013.8 0.0
24/12:00pm 30.0 26.2 6.0 22 12.7 ESE 15 22 8 12 1014.1 1014.0 0.0
24/11:30am 29.2 26.0 8.3 27 11.4 ESE 15 24 8 13 1014.6 1014.5 0.0
24/11:00am 28.0 24.5 7.3 27 11.1 E 15 22 8 12 1015.1 1015.0 0.0
24/10:30am 27.2 23.8 7.6 29 10.5 ESE 15 22 8 12 1015.5 1015.4 0.0
24/10:00am 25.9 22.2 8.0 32 9.6 ESE 17 26 9 14 1015.5 1015.4 0.0
24/09:30am 24.9 22.1 8.4 35 8.8 SE 13 19 7 10 1015.8 1015.7 0.0
24/09:00am 23.4 22.3 10.1 43 7.3 SE 6 9 3 5 1015.7 1015.6 0.0
24/08:30am 21.5 20.5 10.9 51 5.8 SE 7 9 4 5 1015.5 1015.4 0.0
24/08:00am 18.8 18.9 12.8 68 3.4 SSE 4 6 2 3 1015.2 1015.1 0.0
24/07:30am 15.8 16.8 14.2 90 0.9 SE 2 2 1 1 1014.9 1014.8 0.0
24/07:00am 15.3 15.7 13.7 90 0.9 SSE 4 4 2 2 1014.5 1014.4 0.0
24/06:30am 15.4 15.9 13.9 91 0.8 SSE 4 4 2 2 1014.4 1014.3 0.0
24/06:00am 15.5 16.8 14.0 91 0.8 CALM 0 0 0 0 1014.0 1013.9 0.0
24/05:30am 16.0 17.5 14.7 92 0.7 CALM 0 0 0 0 1013.9 1013.8 0.0
24/05:00am 16.2 17.7 14.6 90 0.9 CALM 0 0 0 0 1013.9 1013.8 0.0
24/04:30am 16.6 18.2 14.8 89 1.0 CALM 0 0 0 0 1014.0 1013.9 0.0
24/04:00am 16.9 18.6 15.2 90 1.0 CALM 0 0 0 0 1014.0 1013.9 0.0
24/03:30am 17.2 19.1 15.7 91 0.9 CALM 0 0 0 0 1013.9 1013.8 0.0
24/03:00am 17.6 19.6 16.1 91 0.9 CALM 0 0 0 0 1013.9 1013.8 0.0
24/02:30am 18.0 20.0 16.0 88 1.2 CALM 0 0 0 0 1014.1 1014.0 0.0
24/02:00am 18.7 20.9 16.5 87 1.3 CALM 0 2 0 1 1014.2 1014.1 0.0
24/01:30am 19.1 20.8 17.2 89 1.2 S 4 6 2 3 1014.4 1014.3 0.0
24/01:00am 19.3 21.9 17.4 89 1.2 CALM 0 0 0 0 1014.5 1014.4 0.0
24/12:30am 19.4 21.4 17.0 86 1.5 ENE 2 4 1 2 1014.6 1014.5 0.0
24/12:00am 20.1 22.6 17.3 84 1.7 CALM 0 0 0 0 1014.6 1014.5 0.0
 
Date/Time
CST
Temp
°C
App
Temp
°C
Dew
Point
Rel
Hum
%
Delta-T
°C
Wind Press
QNH
hPa
Press
MSL
hPa
Rain
since 9 am
mm
Dir
 
Spd
km/h
Gust
km/h
Spd
kts
Gust
kts
23/11:30pm 20.7 23.4 17.7 83 1.8 CALM 0 0 0 0 1014.5 1014.4 0.0
23/11:00pm 21.1 23.5 17.9 82 2.0 SE 2 4 1 2 1014.5 1014.4 0.0
23/10:30pm 21.6 24.5 18.2 81 2.1 CALM 0 2 0 1 1014.4 1014.3 0.0
23/10:00pm 22.2 24.8 18.4 79 2.4 SE 2 2 1 1 1014.3 1014.2 0.0
23/09:30pm 22.5 24.8 18.5 78 2.5 SSE 4 6 2 3 1014.0 1013.9 0.0
23/09:00pm 23.1 26.1 18.4 75 3.0 CALM 0 0 0 0 1013.9 1013.8 0.0
23/08:30pm 24.5 27.6 18.7 70 3.7 CALM 0 0 0 0 1013.6 1013.5 0.0
23/08:00pm 25.4 28.5 18.6 66 4.3 CALM 0 2 0 1 1013.2 1013.1 0.0
23/07:30pm 26.2 28.1 18.6 63 4.8 NW 6 7 3 4 1012.8 1012.7 0.0
23/07:00pm 26.6 28.7 16.2 52 6.4 CALM 0 4 0 2 1012.5 1012.4 0.0
23/06:30pm 29.2 30.8 15.0 42 8.7 CALM 0 0 0 0 1012.1 1012.0 0.0
23/06:00pm 31.9 31.6 12.7 31 11.4 ESE 6 7 3 4 1011.8 1011.7 0.0
23/05:30pm 32.7 31.3 12.3 28 12.1 ESE 11 13 6 7 1011.6 1011.5 0.0
23/05:00pm 33.2 31.3 11.7 27 12.7 E 13 20 7 11 1011.4 1011.3 0.0
23/04:30pm 33.6 31.6 12.6 28 12.6 ESE 15 20 8 11 1011.3 1011.2 0.0
23/04:00pm 33.9 32.5 12.3 27 12.9 E 11 15 6 8 1011.4 1011.3 0.0
23/03:30pm 33.6 31.6 12.6 28 12.6 E 15 19 8 10 1011.5 1011.4 0.0
23/03:00pm 33.8 32.8 13.3 29 12.4 SE 11 20 6 11 1011.8 1011.7 0.0
23/02:30pm 33.4 31.8 12.9 28 12.3 SE 13 20 7 11 1012.3 1012.2 0.0
23/02:00pm 33.2 31.4 13.3 30 12.0 ESE 15 22 8 12 1012.8 1012.7 0.0
23/01:30pm 32.6 30.8 13.3 31 11.6 ESE 15 24 8 13 1013.2 1013.1 0.0
23/01:00pm 32.5 31.4 13.2 31 11.6 SE 11 22 6 12 1013.7 1013.6 0.0
23/12:30pm 31.4 29.6 13.2 33 10.9 ESE 15 24 8 13 1014.3 1014.2 0.0
23/12:00pm 30.6 28.2 12.5 33 10.7 SE 17 22 9 12 1014.8 1014.7 0.0
23/11:30am 29.8 27.9 13.1 36 9.9 ESE 15 22 8 12 1015.3 1015.2 0.0
23/11:00am 29.0 26.3 12.8 36 9.5 SE 19 26 10 14 1015.8 1015.7 0.0
23/10:30am 28.1 26.0 13.6 41 8.6 ESE 17 26 9 14 1016.3 1016.2 0.0
23/10:00am 26.8 24.8 13.9 45 7.7 ESE 17 26 9 14 1016.4 1016.3 0.0
23/09:30am 26.1 24.5 13.9 47 7.2 SE 15 24 8 13 1016.4 1016.3 0.0
23/09:00am 25.7 24.7 14.5 50 6.7 SE 13 22 7 12 1016.3 1016.2 0.0
23/08:30am 23.6 22.7 14.9 58 5.2 SE 13 20 7 11 1016.2 1016.1 0.0
23/08:00am 21.8 21.9 15.6 68 3.7 SE 9 13 5 7 1016.0 1015.9 0.0
23/07:30am 19.6 20.5 16.1 80 2.1 SE 6 7 3 4 1015.9 1015.8 0.0
23/07:00am 18.4 20.1 16.2 87 1.3 SE 2 4 1 2 1015.6 1015.5 0.0
23/06:30am 18.5 20.4 16.7 89 1.1 SE 2 4 1 2 1015.3 1015.2 0.0
23/06:00am 18.9 20.9 16.9 88 1.2 SE 2 2 1 1 1015.1 1015.0 0.0
23/05:30am 19.3 21.1 17.3 88 1.2 SSE 4 6 2 3 1015.0 1014.9 0.0
23/05:00am 20.0 21.1 17.2 84 1.7 SSE 7 9 4 5 1014.9 1014.8 0.0
23/04:30am 20.1 21.9 18.4 90 1.1 SSE 6 7 3 4 1014.8 1014.7 0.0
23/04:00am 20.3 22.8 19.0 92 0.8 SE 4 6 2 3 1014.7 1014.6 0.0
23/03:30am 20.7 23.4 19.4 92 0.8 ESE 4 4 2 2 1014.6 1014.5 0.0
23/03:00am 21.1 24.0 19.9 93 0.8 SE 4 4 2 2 1014.8 1014.7 0.0
23/02:30am 21.4 24.7 19.9 91 1.0 SE 2 2 1 1 1014.7 1014.6 0.0
23/02:00am 21.7 25.6 20.3 92 0.9 CALM 0 0 0 0 1014.5 1014.4 0.0
23/01:30am 22.2 25.9 20.7 91 1.0 SSE 2 4 1 2 1014.5 1014.4 0.0
23/01:00am 22.5 26.5 20.6 89 1.2 CALM 0 0 0 0 1014.7 1014.6 0.0
23/12:30am 23.3 27.3 21.4 89 1.3 SSE 2 4 1 2 1014.8 1014.7 0.0
23/12:00am 23.7 28.0 22.0 90 1.1 SSE 2 2 1 1 1015.0 1014.9 0.0
 
Date/Time
CST
Temp
°C
App
Temp
°C
Dew
Point
Rel
Hum
%
Delta-T
°C
Wind Press
QNH
hPa
Press
MSL
hPa
Rain
since 9 am
mm
Dir
 
Spd
km/h
Gust
km/h
Spd
kts
Gust
kts
22/11:30pm 23.9 28.4 21.6 87 1.5 CALM 0 2 0 1 1015.4 1015.3 0.0
22/11:00pm 24.3 29.0 22.0 87 1.5 CALM 0 0 0 0 1015.4 1015.3 0.0
22/10:30pm 25.5 30.2 22.6 84 2.0 SSE 2 4 1 2 1015.5 1015.4 0.0
22/10:00pm 25.6 29.9 22.7 84 2.0 SSW 4 6 2 3 1015.3 1015.2 0.0
22/09:30pm 26.0 30.3 22.7 82 2.2 SSW 4 6 2 3 1015.1 1015.0 0.0
22/09:00pm 26.5 30.4 22.6 79 2.6 SW 6 7 3 4 1014.8 1014.7 0.0
22/08:30pm 27.0 31.3 22.6 77 3.0 WSW 4 6 2 3 1014.6 1014.5 0.0
22/08:00pm 27.6 32.1 23.0 76 3.1 WSW 4 6 2 3 1014.3 1014.2 0.0
22/07:30pm 28.1 32.8 22.6 72 3.7 WSW 2 6 1 3 1013.8 1013.7 0.0
22/07:00pm 29.1 - 21.1 62 5.3 - - - - - 1013.4 - -
22/06:30pm 29.9 32.4 19.0 52 7.1 N 4 6 2 3 1013.1 1013.0 0.0
22/06:00pm 31.9 33.7 17.4 42 9.3 E 4 7 2 4 1012.6 1012.5 0.0
22/05:30pm 32.9 33.8 16.7 38 10.3 E 7 9 4 5 1012.4 1012.3 0.0
22/05:00pm 32.5 33.3 17.2 40 9.8 E 9 17 5 9 1012.3 1012.2 0.0
22/04:30pm 32.8 33.6 17.4 39 9.9 ENE 9 13 5 7 1012.3 1012.2 0.0
22/04:00pm 33.3 33.4 16.6 36 10.6 ESE 11 19 6 10 1012.2 1012.1 0.0
22/03:30pm 33.8 34.5 17.1 37 10.7 ENE 9 15 5 8 1012.3 1012.2 0.0
22/03:00pm 33.7 34.2 17.4 37 10.5 ESE 11 20 6 11 1012.4 1012.3 0.0
22/02:30pm 33.5 34.1 17.6 38 10.2 ESE 11 20 6 11 1012.7 1012.6 0.0
22/02:00pm 33.2 33.1 17.8 40 9.9 ENE 15 24 8 13 1012.8 1012.7 0.0
22/01:30pm 32.6 33.3 18.8 44 9.0 ESE 13 19 7 10 1013.4 1013.3 0.0
22/01:00pm 32.7 32.5 18.5 43 9.2 ESE 17 28 9 15 1013.7 1013.6 0.0
22/12:30pm 32.3 33.3 19.5 46 8.4 E 13 24 7 13 1014.2 1014.1 0.0
22/12:00pm 32.1 33.2 20.4 50 7.8 E 15 22 8 12 1014.8 1014.7 0.0
22/11:30am 30.0 31.5 20.5 56 6.3 E 13 22 7 12 1015.2 1015.1 0.0
22/11:00am 29.5 30.4 20.9 60 5.7 E 17 24 9 13 1015.5 1015.4 0.0
22/10:30am 28.9 31.6 22.2 67 4.5 E 11 15 6 8 1015.8 1015.7 0.0
22/10:00am 28.9 32.1 22.4 68 4.4 E 9 17 5 9 1015.9 1015.8 0.0
22/09:30am 28.0 31.3 22.5 72 3.7 ENE 9 15 5 8 1015.6 1015.5 0.0
22/09:00am 27.3 31.7 23.5 80 2.6 E 6 9 3 5 1015.6 1015.5 0.0
22/08:30am 25.6 29.8 23.1 86 1.7 ESE 6 6 3 3 1015.5 1015.4 0.0
22/08:00am 23.7 28.5 22.1 91 1.1 CALM 0 0 0 0 1015.5 1015.4 0.0
22/07:30am 22.3 26.7 21.3 94 0.7 CALM 0 0 0 0 1015.2 1015.1 0.0
22/07:00am 21.9 26.1 20.9 94 0.7 CALM 0 0 0 0 1015.2 1015.1 0.0
22/06:30am 21.8 25.8 20.6 93 0.8 CALM 0 0 0 0 1015.0 1014.9 0.0
22/06:00am 21.9 25.9 20.5 92 0.9 CALM 0 0 0 0 1014.7 1014.6 0.0
22/05:30am 22.3 26.6 21.1 93 0.8 CALM 0 0 0 0 1014.8 1014.7 0.0
22/05:00am 22.5 26.9 21.3 93 0.8 CALM 0 0 0 0 1014.9 1014.8 0.0
22/04:30am 22.6 26.9 21.2 92 0.9 CALM 0 0 0 0 1014.9 1014.8 0.0
22/04:00am 22.9 27.6 21.9 94 0.7 CALM 0 0 0 0 1014.9 1014.8 0.0
22/03:30am 22.9 27.6 21.9 94 0.7 CALM 0 0 0 0 1014.7 1014.6 0.0
22/03:00am 23.0 27.7 22.0 94 0.7 CALM 0 0 0 0 1014.8 1014.7 0.0
22/02:30am 23.2 28.0 22.2 94 0.7 CALM 0 0 0 0 1014.7 1014.6 0.0
22/02:00am 23.3 28.1 22.1 93 0.8 CALM 0 0 0 0 1014.6 1014.5 0.0
22/01:30am 23.3 28.0 21.9 92 0.9 CALM 0 0 0 0 1014.6 1014.5 0.0
22/01:00am 23.7 28.5 22.1 91 1.1 CALM 0 0 0 0 1014.9 1014.8 0.0
22/12:30am 23.9 28.8 22.3 91 1.1 CALM 0 0 0 0 1015.1 1015.0 0.0
22/12:00am 24.0 28.9 22.4 91 1.1 CALM 0 0 0 0 1015.2 1015.1 0.0
 
Date/Time
CST
Temp
°C
App
Temp
°C
Dew
Point
Rel
Hum
%
Delta-T
°C
Wind Press
QNH
hPa
Press
MSL
hPa
Rain
since 9 am
mm
Dir
 
Spd
km/h
Gust
km/h
Spd
kts
Gust
kts
21/11:30pm 24.9 30.2 23.1 90 1.2 CALM 0 0 0 0 1015.2 1015.1 0.0
21/11:00pm 25.1 30.1 23.2 89 1.3 ESE 2 4 1 2 1015.1 1015.0 0.0
21/10:30pm 25.2 30.4 22.9 87 1.6 CALM 0 0 0 0 1014.9 1014.8 0.0
21/10:00pm 25.8 30.9 23.3 86 1.7 SW 2 4 1 2 1014.8 1014.7 0.0
21/09:30pm 26.3 31.8 23.4 84 2.0 CALM 0 2 0 1 1014.5 1014.4 0.0
21/09:00pm 26.7 31.7 23.8 84 2.0 WSW 4 4 2 2 1014.3 1014.2 0.0

Other Formats:

Comma delimited format used in spreadsheet applications
http://www.bom.gov.au/fwo/IDD60801/IDD60801.94105.axf

JavaScript Object Notation format (JSON) in row-major order
http://www.bom.gov.au/fwo/IDD60801/IDD60801.94105.json